sensor_id;sensor_type;location;lat;lon;timestamp;pressure;altitude;pressure_sealevel;temperature;humidity
3748;BME280;1889;50.058;8.688;2023-07-31T00:00:29;100053.35;;;20.20;58.65
3748;BME280;1889;50.058;8.688;2023-07-31T00:02:59;100058.16;;;20.29;58.24
3748;BME280;1889;50.058;8.688;2023-07-31T00:05:28;100054.53;;;20.46;57.85
3748;BME280;1889;50.058;8.688;2023-07-31T00:07:57;100057.20;;;20.23;58.83
3748;BME280;1889;50.058;8.688;2023-07-31T00:10:26;100056.61;;;20.34;58.51
3748;BME280;1889;50.058;8.688;2023-07-31T00:12:55;100050.14;;;20.29;58.79
3748;BME280;1889;50.058;8.688;2023-07-31T00:15:24;100053.17;;;20.39;58.42
3748;BME280;1889;50.058;8.688;2023-07-31T00:17:53;100045.87;;;20.11;59.52
3748;BME280;1889;50.058;8.688;2023-07-31T00:20:22;100047.48;;;20.06;59.41
3748;BME280;1889;50.058;8.688;2023-07-31T00:22:51;100042.19;;;20.20;58.90
3748;BME280;1889;50.058;8.688;2023-07-31T00:25:20;100046.17;;;19.91;59.69
3748;BME280;1889;50.058;8.688;2023-07-31T00:27:49;100041.74;;;19.83;60.11
3748;BME280;1889;50.058;8.688;2023-07-31T00:30:18;100047.77;;;20.02;59.62
3748;BME280;1889;50.058;8.688;2023-07-31T00:32:47;100048.29;;;19.93;59.48
3748;BME280;1889;50.058;8.688;2023-07-31T00:35:16;100049.96;;;20.02;59.26
3748;BME280;1889;50.058;8.688;2023-07-31T00:37:45;100035.55;;;20.05;59.17
3748;BME280;1889;50.058;8.688;2023-07-31T00:40:14;100043.53;;;19.98;59.22
3748;BME280;1889;50.058;8.688;2023-07-31T00:42:43;100040.55;;;19.95;59.49
3748;BME280;1889;50.058;8.688;2023-07-31T00:45:12;100030.17;;;19.98;59.40
3748;BME280;1889;50.058;8.688;2023-07-31T00:47:41;100024.66;;;20.01;59.62
3748;BME280;1889;50.058;8.688;2023-07-31T00:50:10;100022.44;;;19.93;59.37
3748;BME280;1889;50.058;8.688;2023-07-31T00:52:40;100014.03;;;19.92;59.19
3748;BME280;1889;50.058;8.688;2023-07-31T00:55:09;100019.53;;;19.89;59.35
3748;BME280;1889;50.058;8.688;2023-07-31T00:57:39;100016.17;;;20.01;59.05
3748;BME280;1889;50.058;8.688;2023-07-31T01:00:13;100009.97;;;20.01;58.66
3748;BME280;1889;50.058;8.688;2023-07-31T01:02:41;100018.34;;;19.79;59.22
3748;BME280;1889;50.058;8.688;2023-07-31T01:05:11;100010.59;;;19.74;59.07
3748;BME280;1889;50.058;8.688;2023-07-31T01:10:30;100017.63;;;19.68;59.37
3748;BME280;1889;50.058;8.688;2023-07-31T01:12:58;100013.35;;;19.73;59.39
3748;BME280;1889;50.058;8.688;2023-07-31T01:15:28;100013.22;;;19.83;58.92
3748;BME280;1889;50.058;8.688;2023-07-31T01:17:57;100011.49;;;19.82;58.71
3748;BME280;1889;50.058;8.688;2023-07-31T01:20:27;99997.41;;;19.71;58.62
3748;BME280;1889;50.058;8.688;2023-07-31T01:23:13;99997.41;;;19.71;58.62
3748;BME280;1889;50.058;8.688;2023-07-31T01:31:25;100000.00;;;19.73;58.49
3748;BME280;1889;50.058;8.688;2023-07-31T01:33:58;100007.38;;;19.76;58.07
3748;BME280;1889;50.058;8.688;2023-07-31T01:36:28;99997.27;;;19.81;58.04
3748;BME280;1889;50.058;8.688;2023-07-31T01:39:00;99994.94;;;19.91;57.78
3748;BME280;1889;50.058;8.688;2023-07-31T01:41:29;99988.31;;;19.83;57.77
3748;BME280;1889;50.058;8.688;2023-07-31T01:43:58;99996.33;;;19.83;57.63
3748;BME280;1889;50.058;8.688;2023-07-31T01:46:27;99989.26;;;19.81;57.84
3748;BME280;1889;50.058;8.688;2023-07-31T01:48:56;99980.25;;;19.91;57.64
3748;BME280;1889;50.058;8.688;2023-07-31T01:51:25;99977.24;;;19.81;57.71
3748;BME280;1889;50.058;8.688;2023-07-31T01:53:54;99973.59;;;19.75;57.84
3748;BME280;1889;50.058;8.688;2023-07-31T01:56:23;99971.39;;;19.98;57.35
3748;BME280;1889;50.058;8.688;2023-07-31T01:58:52;99967.38;;;19.98;57.19
3748;BME280;1889;50.058;8.688;2023-07-31T02:01:21;99963.45;;;19.96;57.09
3748;BME280;1889;50.058;8.688;2023-07-31T02:03:51;99967.69;;;20.00;57.05
3748;BME280;1889;50.058;8.688;2023-07-31T02:06:20;99967.55;;;19.95;56.95
3748;BME280;1889;50.058;8.688;2023-07-31T02:08:50;99954.70;;;19.94;57.04
3748;BME280;1889;50.058;8.688;2023-07-31T02:11:19;99956.39;;;19.95;57.00
3748;BME280;1889;50.058;8.688;2023-07-31T02:13:49;99961.38;;;19.94;57.01
3748;BME280;1889;50.058;8.688;2023-07-31T02:16:18;99958.33;;;20.00;56.74
3748;BME280;1889;50.058;8.688;2023-07-31T02:18:47;99969.43;;;20.08;56.64
3748;BME280;1889;50.058;8.688;2023-07-31T02:21:16;99969.58;;;19.98;56.64
3748;BME280;1889;50.058;8.688;2023-07-31T02:23:45;99967.38;;;19.98;56.75
3748;BME280;1889;50.058;8.688;2023-07-31T02:26:14;99959.38;;;20.05;56.68
3748;BME280;1889;50.058;8.688;2023-07-31T02:28:43;99961.11;;;20.06;56.58
3748;BME280;1889;50.058;8.688;2023-07-31T02:31:12;99956.67;;;19.91;57.03
3748;BME280;1889;50.058;8.688;2023-07-31T02:33:41;99954.98;;;20.04;56.70
3748;BME280;1889;50.058;8.688;2023-07-31T02:36:10;99957.23;;;19.89;57.06
3748;BME280;1889;50.058;8.688;2023-07-31T02:38:39;99954.28;;;19.86;57.38
3748;BME280;1889;50.058;8.688;2023-07-31T02:41:08;99954.52;;;20.04;56.96
3748;BME280;1889;50.058;8.688;2023-07-31T02:43:37;99953.50;;;20.14;56.59
3748;BME280;1889;50.058;8.688;2023-07-31T02:46:06;99954.38;;;20.22;56.43
3748;BME280;1889;50.058;8.688;2023-07-31T02:48:35;99958.06;;;20.12;56.66
3748;BME280;1889;50.058;8.688;2023-07-31T02:51:04;99947.20;;;20.15;56.24
3748;BME280;1889;50.058;8.688;2023-07-31T02:53:33;99957.42;;;20.15;56.34
3748;BME280;1889;50.058;8.688;2023-07-31T02:56:02;99961.52;;;20.14;56.55
3748;BME280;1889;50.058;8.688;2023-07-31T02:58:31;99959.33;;;20.20;56.43
3748;BME280;1889;50.058;8.688;2023-07-31T03:01:01;99961.61;;;20.19;56.40
3748;BME280;1889;50.058;8.688;2023-07-31T03:03:30;99965.23;;;20.34;55.99
3748;BME280;1889;50.058;8.688;2023-07-31T03:05:59;99975.18;;;20.16;56.36
3748;BME280;1889;50.058;8.688;2023-07-31T03:08:28;99966.02;;;20.28;56.15
3748;BME280;1889;50.058;8.688;2023-07-31T03:10:57;99970.80;;;20.23;56.43
3748;BME280;1889;50.058;8.688;2023-07-31T03:13:26;99967.75;;;20.29;56.40
3748;BME280;1889;50.058;8.688;2023-07-31T03:15:55;99973.44;;;20.08;57.04
3748;BME280;1889;50.058;8.688;2023-07-31T03:18:24;99979.73;;;20.07;57.76
3748;BME280;1889;50.058;8.688;2023-07-31T03:20:53;99968.59;;;20.22;58.08
3748;BME280;1889;50.058;8.688;2023-07-31T03:23:22;99969.75;;;19.95;60.12
3748;BME280;1889;50.058;8.688;2023-07-31T03:26:01;99962.08;;;19.82;60.86
3748;BME280;1889;50.058;8.688;2023-07-31T03:28:31;99972.70;;;19.68;62.09
3748;BME280;1889;50.058;8.688;2023-07-31T03:31:00;99966.45;;;19.76;62.01
3748;BME280;1889;50.058;8.688;2023-07-31T03:33:30;99964.22;;;19.91;61.52
3748;BME280;1889;50.058;8.688;2023-07-31T03:35:59;99962.86;;;19.84;61.82
3748;BME280;1889;50.058;8.688;2023-07-31T03:38:28;99955.56;;;19.56;63.61
3748;BME280;1889;50.058;8.688;2023-07-31T03:40:57;99953.52;;;19.61;63.11
3748;BME280;1889;50.058;8.688;2023-07-31T03:43:26;99962.13;;;19.73;62.55
3748;BME280;1889;50.058;8.688;2023-07-31T03:45:55;99956.63;;;19.76;62.55
3748;BME280;1889;50.058;8.688;2023-07-31T03:48:24;99967.14;;;19.64;62.86
3748;BME280;1889;50.058;8.688;2023-07-31T03:50:54;99965.28;;;19.41;63.82
3748;BME280;1889;50.058;8.688;2023-07-31T03:53:23;99964.41;;;19.50;63.72
3748;BME280;1889;50.058;8.688;2023-07-31T03:55:52;99960.88;;;19.72;62.76
3748;BME280;1889;50.058;8.688;2023-07-31T03:58:21;99964.44;;;19.57;63.06
3748;BME280;1889;50.058;8.688;2023-07-31T04:00:50;99969.00;;;19.55;62.97
3748;BME280;1889;50.058;8.688;2023-07-31T04:03:19;99964.63;;;19.54;63.08
3748;BME280;1889;50.058;8.688;2023-07-31T04:05:48;99970.62;;;19.73;62.48
3748;BME280;1889;50.058;8.688;2023-07-31T04:08:17;99960.38;;;19.65;62.71
3748;BME280;1889;50.058;8.688;2023-07-31T04:10:46;99955.56;;;19.79;62.11
3748;BME280;1889;50.058;8.688;2023-07-31T04:13:15;99957.86;;;19.47;63.13
3748;BME280;1889;50.058;8.688;2023-07-31T04:15:49;99952.37;;;19.34;63.36
3748;BME280;1889;50.058;8.688;2023-07-31T04:18:20;99956.37;;;19.34;63.27
3748;BME280;1889;50.058;8.688;2023-07-31T04:20:49;99952.80;;;19.26;63.36
3748;BME280;1889;50.058;8.688;2023-07-31T04:23:18;99951.08;;;19.25;63.33
3748;BME280;1889;50.058;8.688;2023-07-31T04:25:47;99953.83;;;19.24;63.46
3748;BME280;1889;50.058;8.688;2023-07-31T04:28:16;99947.11;;;19.17;63.58
3748;BME280;1889;50.058;8.688;2023-07-31T04:30:45;99941.27;;;19.10;63.91
3748;BME280;1889;50.058;8.688;2023-07-31T04:33:14;99935.77;;;19.29;63.31
3748;BME280;1889;50.058;8.688;2023-07-31T04:35:49;99929.25;;;19.26;63.35
3748;BME280;1889;50.058;8.688;2023-07-31T04:38:20;99933.66;;;19.11;64.10
3748;BME280;1889;50.058;8.688;2023-07-31T04:40:50;99920.38;;;18.94;64.50
3748;BME280;1889;50.058;8.688;2023-07-31T04:43:19;99926.31;;;19.15;63.84
3748;BME280;1889;50.058;8.688;2023-07-31T04:45:49;99929.89;;;19.22;63.47
3748;BME280;1889;50.058;8.688;2023-07-31T04:48:18;99926.59;;;19.26;63.28
3748;BME280;1889;50.058;8.688;2023-07-31T04:50:47;99921.82;;;19.47;62.67
3748;BME280;1889;50.058;8.688;2023-07-31T04:53:16;99918.27;;;19.55;62.50
3748;BME280;1889;50.058;8.688;2023-07-31T04:55:45;99923.79;;;19.36;62.76
3748;BME280;1889;50.058;8.688;2023-07-31T04:58:14;99917.69;;;19.50;62.59
3748;BME280;1889;50.058;8.688;2023-07-31T05:00:43;99920.05;;;19.47;62.63
3748;BME280;1889;50.058;8.688;2023-07-31T05:03:13;99925.59;;;19.35;62.97
3748;BME280;1889;50.058;8.688;2023-07-31T05:05:42;99929.09;;;19.13;63.66
3748;BME280;1889;50.058;8.688;2023-07-31T05:08:11;99921.99;;;19.21;63.54
3748;BME280;1889;50.058;8.688;2023-07-31T05:10:40;99929.17;;;19.12;63.46
3748;BME280;1889;50.058;8.688;2023-07-31T05:13:10;99915.36;;;19.28;63.28
3748;BME280;1889;50.058;8.688;2023-07-31T05:15:40;99909.67;;;19.18;63.27
3748;BME280;1889;50.058;8.688;2023-07-31T05:18:09;99910.58;;;19.26;63.21
3748;BME280;1889;50.058;8.688;2023-07-31T05:20:38;99913.64;;;19.11;63.50
3748;BME280;1889;50.058;8.688;2023-07-31T05:23:08;99916.78;;;19.11;63.77
3748;BME280;1889;50.058;8.688;2023-07-31T05:25:37;99910.54;;;19.19;63.31
3748;BME280;1889;50.058;8.688;2023-07-31T05:28:06;99924.66;;;19.05;63.87
3748;BME280;1889;50.058;8.688;2023-07-31T05:30:35;99926.16;;;19.18;63.75
3748;BME280;1889;50.058;8.688;2023-07-31T05:33:04;99923.88;;;19.19;63.86
3748;BME280;1889;50.058;8.688;2023-07-31T05:35:33;99929.30;;;19.17;63.73
3748;BME280;1889;50.058;8.688;2023-07-31T05:38:03;99925.72;;;19.25;63.44
3748;BME280;1889;50.058;8.688;2023-07-31T05:40:33;99924.42;;;19.32;62.73
3748;BME280;1889;50.058;8.688;2023-07-31T05:43:02;99919.59;;;19.39;62.92
3748;BME280;1889;50.058;8.688;2023-07-31T05:45:31;99919.12;;;19.39;62.84
3748;BME280;1889;50.058;8.688;2023-07-31T05:48:01;99911.88;;;19.50;62.27
3748;BME280;1889;50.058;8.688;2023-07-31T05:50:30;99914.70;;;19.47;62.22
3748;BME280;1889;50.058;8.688;2023-07-31T05:52:59;99904.41;;;19.71;61.80
3748;BME280;1889;50.058;8.688;2023-07-31T05:55:28;99898.20;;;19.70;61.46
3748;BME280;1889;50.058;8.688;2023-07-31T05:57:57;99894.91;;;19.51;61.84
3748;BME280;1889;50.058;8.688;2023-07-31T06:00:26;99900.97;;;19.62;61.71
3748;BME280;1889;50.058;8.688;2023-07-31T06:02:56;99895.34;;;19.66;61.43
3748;BME280;1889;50.058;8.688;2023-07-31T06:05:25;99898.09;;;19.65;61.32
3748;BME280;1889;50.058;8.688;2023-07-31T06:07:56;99895.30;;;19.52;61.50
3748;BME280;1889;50.058;8.688;2023-07-31T06:10:26;99897.55;;;19.67;61.17
3748;BME280;1889;50.058;8.688;2023-07-31T06:12:55;99900.31;;;19.72;60.93
3748;BME280;1889;50.058;8.688;2023-07-31T06:15:25;99895.63;;;19.62;61.31
3748;BME280;1889;50.058;8.688;2023-07-31T06:17:54;99879.56;;;19.77;60.90
3748;BME280;1889;50.058;8.688;2023-07-31T06:20:24;99888.58;;;19.68;60.70
3748;BME280;1889;50.058;8.688;2023-07-31T06:22:53;99885.61;;;19.65;61.17
3748;BME280;1889;50.058;8.688;2023-07-31T06:25:22;99881.99;;;19.66;61.22
3748;BME280;1889;50.058;8.688;2023-07-31T06:27:51;99887.44;;;19.72;61.11
3748;BME280;1889;50.058;8.688;2023-07-31T06:30:20;99896.53;;;19.76;60.75
3748;BME280;1889;50.058;8.688;2023-07-31T06:32:49;99905.22;;;19.87;60.59
3748;BME280;1889;50.058;8.688;2023-07-31T06:35:18;99906.06;;;19.80;60.82
3748;BME280;1889;50.058;8.688;2023-07-31T06:37:47;99901.14;;;19.96;60.60
3748;BME280;1889;50.058;8.688;2023-07-31T06:40:16;99908.09;;;19.84;61.04
3748;BME280;1889;50.058;8.688;2023-07-31T06:42:45;99911.84;;;20.03;60.56
3748;BME280;1889;50.058;8.688;2023-07-31T06:45:14;99900.98;;;20.06;60.33
3748;BME280;1889;50.058;8.688;2023-07-31T06:47:43;99901.84;;;20.06;60.52
3748;BME280;1889;50.058;8.688;2023-07-31T06:50:12;99900.02;;;20.00;60.64
3748;BME280;1889;50.058;8.688;2023-07-31T06:52:41;99902.41;;;20.04;60.42
3748;BME280;1889;50.058;8.688;2023-07-31T06:57:49;99907.68;;;20.20;60.04
3748;BME280;1889;50.058;8.688;2023-07-31T07:00:19;99916.83;;;20.02;60.40
3748;BME280;1889;50.058;8.688;2023-07-31T07:02:49;99908.92;;;20.14;60.24
3748;BME280;1889;50.058;8.688;2023-07-31T07:05:18;99909.88;;;20.20;59.95
3748;BME280;1889;50.058;8.688;2023-07-31T07:07:50;99907.13;;;20.22;60.13
3748;BME280;1889;50.058;8.688;2023-07-31T07:10:20;99904.99;;;20.06;60.27
3748;BME280;1889;50.058;8.688;2023-07-31T07:12:49;99903.41;;;20.25;59.99
3748;BME280;1889;50.058;8.688;2023-07-31T07:15:18;99906.35;;;20.27;59.88
3748;BME280;1889;50.058;8.688;2023-07-31T07:17:47;99892.89;;;20.14;60.10
3748;BME280;1889;50.058;8.688;2023-07-31T07:20:16;99895.64;;;20.13;60.13
3748;BME280;1889;50.058;8.688;2023-07-31T07:22:47;99895.86;;;20.17;60.10
3748;BME280;1889;50.058;8.688;2023-07-31T07:25:16;99891.94;;;20.15;60.22
3748;BME280;1889;50.058;8.688;2023-07-31T07:27:45;99890.38;;;20.04;60.49
3748;BME280;1889;50.058;8.688;2023-07-31T07:30:14;99884.48;;;20.20;60.35
3748;BME280;1889;50.058;8.688;2023-07-31T07:32:43;99884.48;;;20.20;60.35
3748;BME280;1889;50.058;8.688;2023-07-31T07:35:12;99872.47;;;20.28;60.35
3748;BME280;1889;50.058;8.688;2023-07-31T07:37:41;99865.07;;;20.40;60.42
3748;BME280;1889;50.058;8.688;2023-07-31T07:40:10;99868.12;;;20.48;60.18
3748;BME280;1889;50.058;8.688;2023-07-31T07:42:39;99864.27;;;20.80;59.63
3748;BME280;1889;50.058;8.688;2023-07-31T07:45:09;99862.83;;;20.89;59.10
3748;BME280;1889;50.058;8.688;2023-07-31T07:47:41;99854.52;;;20.79;59.45
3748;BME280;1889;50.058;8.688;2023-07-31T07:50:11;99859.22;;;20.69;59.70
3748;BME280;1889;50.058;8.688;2023-07-31T07:52:40;99861.50;;;20.68;59.97
3748;BME280;1889;50.058;8.688;2023-07-31T07:55:09;99863.83;;;21.01;59.21
3748;BME280;1889;50.058;8.688;2023-07-31T07:57:38;99860.81;;;20.85;59.32
3748;BME280;1889;50.058;8.688;2023-07-31T08:00:07;99862.73;;;20.76;59.43
3748;BME280;1889;50.058;8.688;2023-07-31T08:02:38;99861.41;;;20.83;59.32
3748;BME280;1889;50.058;8.688;2023-07-31T08:05:14;99860.92;;;20.91;59.46
3748;BME280;1889;50.058;8.688;2023-07-31T08:07:45;99856.94;;;21.18;58.87
3748;BME280;1889;50.058;8.688;2023-07-31T08:10:14;99857.13;;;21.22;58.90
3748;BME280;1889;50.058;8.688;2023-07-31T08:12:43;99862.65;;;21.26;58.77
3748;BME280;1889;50.058;8.688;2023-07-31T08:15:12;99857.55;;;21.36;58.30
3748;BME280;1889;50.058;8.688;2023-07-31T08:17:41;99858.31;;;21.38;58.19
3748;BME280;1889;50.058;8.688;2023-07-31T08:23:00;99848.63;;;21.22;58.36
3748;BME280;1889;50.058;8.688;2023-07-31T08:25:29;99848.52;;;21.10;59.17
3748;BME280;1889;50.058;8.688;2023-07-31T08:27:58;99841.90;;;20.88;59.15
3748;BME280;1889;50.058;8.688;2023-07-31T08:30:27;99837.77;;;20.97;59.21
3748;BME280;1889;50.058;8.688;2023-07-31T08:32:57;99845.32;;;20.98;59.38
3748;BME280;1889;50.058;8.688;2023-07-31T08:35:26;99833.03;;;21.15;59.19
3748;BME280;1889;50.058;8.688;2023-07-31T08:37:58;99838.20;;;21.18;59.02
3748;BME280;1889;50.058;8.688;2023-07-31T08:40:28;99829.69;;;21.11;59.10
3748;BME280;1889;50.058;8.688;2023-07-31T08:42:57;99827.02;;;21.18;58.64
3748;BME280;1889;50.058;8.688;2023-07-31T08:45:28;99826.73;;;21.16;58.99
3748;BME280;1889;50.058;8.688;2023-07-31T08:47:58;99828.16;;;21.14;59.15
3748;BME280;1889;50.058;8.688;2023-07-31T08:50:27;99831.06;;;21.38;58.65
3748;BME280;1889;50.058;8.688;2023-07-31T08:52:56;99822.89;;;21.47;58.37
3748;BME280;1889;50.058;8.688;2023-07-31T08:55:26;99830.36;;;21.61;57.87
3748;BME280;1889;50.058;8.688;2023-07-31T08:57:56;99826.20;;;21.50;58.10
3748;BME280;1889;50.058;8.688;2023-07-31T09:00:26;99827.34;;;21.53;58.22
3748;BME280;1889;50.058;8.688;2023-07-31T09:03:03;99833.33;;;21.64;58.13
3748;BME280;1889;50.058;8.688;2023-07-31T09:05:34;99823.23;;;21.87;57.52
3748;BME280;1889;50.058;8.688;2023-07-31T09:08:04;99830.78;;;21.88;57.49
3748;BME280;1889;50.058;8.688;2023-07-31T09:10:33;99834.09;;;21.79;57.76
3748;BME280;1889;50.058;8.688;2023-07-31T09:13:03;99819.33;;;21.98;57.36
3748;BME280;1889;50.058;8.688;2023-07-31T09:15:33;99822.95;;;21.72;57.44
3748;BME280;1889;50.058;8.688;2023-07-31T09:18:03;99822.37;;;21.87;57.56
3748;BME280;1889;50.058;8.688;2023-07-31T09:20:34;99825.08;;;21.99;57.37
3748;BME280;1889;50.058;8.688;2023-07-31T09:23:10;99824.72;;;21.79;58.31
3748;BME280;1889;50.058;8.688;2023-07-31T09:25:43;99820.22;;;21.79;58.50
3748;BME280;1889;50.058;8.688;2023-07-31T09:28:11;99821.56;;;21.79;58.32
3748;BME280;1889;50.058;8.688;2023-07-31T09:30:51;99812.42;;;21.82;58.09
3748;BME280;1889;50.058;8.688;2023-07-31T09:33:20;99801.70;;;21.82;58.80
3748;BME280;1889;50.058;8.688;2023-07-31T09:35:49;99811.56;;;21.68;59.01
3748;BME280;1889;50.058;8.688;2023-07-31T09:38:18;99811.65;;;21.87;58.56
3748;BME280;1889;50.058;8.688;2023-07-31T09:40:48;99811.19;;;22.00;58.29
3748;BME280;1889;50.058;8.688;2023-07-31T09:43:22;99813.56;;;22.04;57.81
3748;BME280;1889;50.058;8.688;2023-07-31T09:45:55;99800.77;;;22.33;57.78
3748;BME280;1889;50.058;8.688;2023-07-31T09:48:26;99813.49;;;22.55;56.90
3748;BME280;1889;50.058;8.688;2023-07-31T09:50:55;99797.23;;;22.33;57.88
3748;BME280;1889;50.058;8.688;2023-07-31T09:53:30;99788.48;;;22.55;57.29
3748;BME280;1889;50.058;8.688;2023-07-31T09:55:59;99787.26;;;22.22;59.06
3748;BME280;1889;50.058;8.688;2023-07-31T09:58:30;99784.85;;;22.37;57.54
3748;BME280;1889;50.058;8.688;2023-07-31T10:01:02;99780.62;;;22.46;57.06
3748;BME280;1889;50.058;8.688;2023-07-31T10:03:32;99775.48;;;22.74;56.56
3748;BME280;1889;50.058;8.688;2023-07-31T10:06:02;99770.77;;;22.65;55.68
3748;BME280;1889;50.058;8.688;2023-07-31T10:08:34;99772.94;;;22.60;54.97
3748;BME280;1889;50.058;8.688;2023-07-31T10:11:04;99771.22;;;22.59;54.01
3748;BME280;1889;50.058;8.688;2023-07-31T10:13:34;99752.38;;;22.84;53.17
3748;BME280;1889;50.058;8.688;2023-07-31T10:16:04;99753.19;;;22.79;52.56
3748;BME280;1889;50.058;8.688;2023-07-31T10:18:34;99741.25;;;22.77;52.85
3748;BME280;1889;50.058;8.688;2023-07-31T10:21:04;99748.00;;;22.89;52.28
3748;BME280;1889;50.058;8.688;2023-07-31T10:23:33;99746.91;;;22.73;52.54
3748;BME280;1889;50.058;8.688;2023-07-31T10:26:02;99744.63;;;22.98;51.99
3748;BME280;1889;50.058;8.688;2023-07-31T10:28:35;99742.91;;;22.97;51.69
3748;BME280;1889;50.058;8.688;2023-07-31T10:31:05;99739.42;;;23.07;51.70
3748;BME280;1889;50.058;8.688;2023-07-31T10:33:35;99737.91;;;22.98;51.94
3748;BME280;1889;50.058;8.688;2023-07-31T10:36:19;99738.37;;;22.86;51.85
3748;BME280;1889;50.058;8.688;2023-07-31T10:38:51;99735.66;;;23.10;51.80
3748;BME280;1889;50.058;8.688;2023-07-31T10:41:29;99736.05;;;23.16;51.53
3748;BME280;1889;50.058;8.688;2023-07-31T10:44:00;99729.94;;;23.20;51.18
3748;BME280;1889;50.058;8.688;2023-07-31T10:46:29;99730.31;;;23.21;50.13
3748;BME280;1889;50.058;8.688;2023-07-31T10:49:00;99721.67;;;23.29;50.51
3748;BME280;1889;50.058;8.688;2023-07-31T10:51:34;99727.09;;;23.40;50.22
3748;BME280;1889;50.058;8.688;2023-07-31T10:54:13;99723.91;;;23.35;50.83
3748;BME280;1889;50.058;8.688;2023-07-31T10:56:51;99717.41;;;23.26;50.94
3748;BME280;1889;50.058;8.688;2023-07-31T10:59:16;99712.90;;;23.27;51.04
3748;BME280;1889;50.058;8.688;2023-07-31T11:01:56;99714.21;;;23.56;50.75
3748;BME280;1889;50.058;8.688;2023-07-31T11:04:30;99710.92;;;23.64;50.44
3748;BME280;1889;50.058;8.688;2023-07-31T11:07:01;99709.09;;;23.64;49.78
3748;BME280;1889;50.058;8.688;2023-07-31T11:09:33;99706.75;;;23.59;50.12
3748;BME280;1889;50.058;8.688;2023-07-31T11:12:02;99712.16;;;23.65;50.15
3748;BME280;1889;50.058;8.688;2023-07-31T11:14:31;99704.06;;;23.59;49.10
3748;BME280;1889;50.058;8.688;2023-07-31T11:17:05;99708.25;;;23.80;48.77
3748;BME280;1889;50.058;8.688;2023-07-31T11:19:31;99710.69;;;23.78;48.44
3748;BME280;1889;50.058;8.688;2023-07-31T11:22:00;99712.75;;;23.69;48.78
3748;BME280;1889;50.058;8.688;2023-07-31T11:24:29;99709.23;;;24.13;48.56
3748;BME280;1889;50.058;8.688;2023-07-31T11:26:58;99712.19;;;24.26;47.90
3748;BME280;1889;50.058;8.688;2023-07-31T11:29:28;99708.51;;;24.05;47.71
3748;BME280;1889;50.058;8.688;2023-07-31T11:31:57;99705.72;;;24.23;47.91
3748;BME280;1889;50.058;8.688;2023-07-31T11:34:26;99694.92;;;24.01;48.02
3748;BME280;1889;50.058;8.688;2023-07-31T11:36:55;99703.47;;;24.17;48.06
3748;BME280;1889;50.058;8.688;2023-07-31T11:39:24;99700.19;;;24.25;48.25
3748;BME280;1889;50.058;8.688;2023-07-31T11:41:59;99695.44;;;24.28;47.84
3748;BME280;1889;50.058;8.688;2023-07-31T11:44:37;99683.31;;;24.34;47.73
3748;BME280;1889;50.058;8.688;2023-07-31T11:47:01;99693.70;;;24.11;48.03
3748;BME280;1889;50.058;8.688;2023-07-31T11:49:30;99679.41;;;24.05;47.90
3748;BME280;1889;50.058;8.688;2023-07-31T11:52:00;99677.43;;;24.18;47.94
3748;BME280;1889;50.058;8.688;2023-07-31T11:54:29;99681.73;;;24.15;47.93
3748;BME280;1889;50.058;8.688;2023-07-31T11:56:58;99673.17;;;24.04;48.55
3748;BME280;1889;50.058;8.688;2023-07-31T11:59:29;99669.02;;;24.11;48.59
3748;BME280;1889;50.058;8.688;2023-07-31T12:01:58;99672.42;;;24.36;48.47
3748;BME280;1889;50.058;8.688;2023-07-31T12:04:27;99663.34;;;24.53;48.24
3748;BME280;1889;50.058;8.688;2023-07-31T12:06:56;99668.47;;;24.51;47.83
3748;BME280;1889;50.058;8.688;2023-07-31T12:09:25;99670.07;;;24.91;47.55
3748;BME280;1889;50.058;8.688;2023-07-31T12:11:54;99657.37;;;25.08;47.50
3748;BME280;1889;50.058;8.688;2023-07-31T12:14:28;99661.74;;;25.15;47.03
3748;BME280;1889;50.058;8.688;2023-07-31T12:17:05;99646.34;;;25.32;46.44
3748;BME280;1889;50.058;8.688;2023-07-31T12:19:31;99647.88;;;25.40;45.86
3748;BME280;1889;50.058;8.688;2023-07-31T12:22:01;99641.30;;;25.18;45.78
3748;BME280;1889;50.058;8.688;2023-07-31T12:24:30;99644.64;;;25.10;46.12
3748;BME280;1889;50.058;8.688;2023-07-31T12:27:08;99646.41;;;25.00;46.29
3748;BME280;1889;50.058;8.688;2023-07-31T12:29:36;99647.18;;;24.85;46.46
3748;BME280;1889;50.058;8.688;2023-07-31T12:32:21;99647.46;;;25.08;46.12
3748;BME280;1889;50.058;8.688;2023-07-31T12:38:00;99652.64;;;24.68;46.88
3748;BME280;1889;50.058;8.688;2023-07-31T12:40:27;99647.92;;;24.50;47.56
3748;BME280;1889;50.058;8.688;2023-07-31T12:42:56;99640.85;;;24.43;47.87
3748;BME280;1889;50.058;8.688;2023-07-31T12:45:25;99646.16;;;24.28;48.32
3748;BME280;1889;50.058;8.688;2023-07-31T12:47:55;99634.20;;;23.99;49.08
3748;BME280;1889;50.058;8.688;2023-07-31T12:50:24;99634.70;;;23.81;49.48
3748;BME280;1889;50.058;8.688;2023-07-31T12:52:56;99632.50;;;23.81;49.68
3748;BME280;1889;50.058;8.688;2023-07-31T12:55:25;99629.06;;;23.95;49.25
3748;BME280;1889;50.058;8.688;2023-07-31T12:57:55;99621.25;;;23.87;49.17
3748;BME280;1889;50.058;8.688;2023-07-31T13:00:24;99616.59;;;23.94;49.24
3748;BME280;1889;50.058;8.688;2023-07-31T13:02:54;99614.59;;;24.24;49.06
3748;BME280;1889;50.058;8.688;2023-07-31T13:05:23;99603.36;;;24.08;49.01
3748;BME280;1889;50.058;8.688;2023-07-31T13:07:52;99601.28;;;24.28;48.63
3748;BME280;1889;50.058;8.688;2023-07-31T13:10:23;99590.03;;;24.29;48.55
3748;BME280;1889;50.058;8.688;2023-07-31T13:12:53;99582.23;;;24.52;48.58
3748;BME280;1889;50.058;8.688;2023-07-31T13:15:23;99582.03;;;24.65;48.31
3748;BME280;1889;50.058;8.688;2023-07-31T13:17:52;99575.67;;;24.71;47.39
3748;BME280;1889;50.058;8.688;2023-07-31T13:20:21;99580.89;;;24.73;47.60
3748;BME280;1889;50.058;8.688;2023-07-31T13:22:50;99589.65;;;24.92;47.26
3748;BME280;1889;50.058;8.688;2023-07-31T13:25:19;99585.12;;;24.87;47.02
3748;BME280;1889;50.058;8.688;2023-07-31T13:27:48;99592.27;;;24.77;46.88
3748;BME280;1889;50.058;8.688;2023-07-31T13:30:17;99591.82;;;24.71;46.76
3748;BME280;1889;50.058;8.688;2023-07-31T13:32:46;99582.84;;;24.77;47.04
3748;BME280;1889;50.058;8.688;2023-07-31T13:35:15;99577.58;;;24.49;47.57
3748;BME280;1889;50.058;8.688;2023-07-31T13:37:44;99591.31;;;24.46;47.79
3748;BME280;1889;50.058;8.688;2023-07-31T13:40:13;99593.03;;;24.47;47.72
3748;BME280;1889;50.058;8.688;2023-07-31T13:42:42;99600.52;;;24.38;48.36
3748;BME280;1889;50.058;8.688;2023-07-31T13:45:11;99594.04;;;24.40;47.86
3748;BME280;1889;50.058;8.688;2023-07-31T13:47:40;99598.20;;;24.39;47.91
3748;BME280;1889;50.058;8.688;2023-07-31T13:50:09;99597.22;;;24.34;48.20